CYBU

Nipawin Airport

Nipawin, Saskatchewan, Canada
METAR CYBU 162200Z AUTO 36002KT 9SM BKN090 BKN120 M21/M24 A3024 RMK SLP290
Observed Flight Rules
Jan-16 @ 22:00 UTC (43 minutes ago) Visual Flight Rules
Wind Visibility Clouds
360° at 2 knots 9 miles
  • Broken at 9,000' AGL
  • Broken at 12,000' AGL
Temperatures Readings
Current -21°C / -6°F
Dewpoint -24°C / -11°F
Humidity 77%
Altimeter 30.24" Hg
Pressure 1029 hPa
Elevation 374
METAR CYBU 162200Z AUTO 36002KT 9SM BKN090 BKN120 M21/M24 A3024 RMK SLP290
Observed Flight Rules
Jan-16 @ 22:00 UTC
(43 minutes ago)
VFR
Wind Visibility
360° at 2 knots 9 miles
Clouds
  • Broken at 9,000' AGL
  • Broken at 12,000' AGL
Temperature Dewpoint
-21°C / -6°F -24°C / -11°F
Humidity Altimeter Pressure
77% 30.24" Hg 1029 hPa